createdAt,value
2017-10-11T00:00:03.831Z,791.07
2017-10-11T00:00:07.941Z,791.04
2017-10-11T00:00:12.431Z,791.03
2017-10-11T00:00:16.951Z,791.04
2017-10-11T00:00:20.921Z,791.05
2017-10-11T00:00:25.279Z,791.01
2017-10-11T00:00:29.530Z,791.03
2017-10-11T00:00:33.493Z,791.04
2017-10-11T00:00:37.594Z,791.04
2017-10-11T00:00:41.827Z,791.04
2017-10-11T00:00:46.057Z,791.01
2017-10-11T00:00:50.028Z,791.01
2017-10-11T00:00:54.121Z,791.03
2017-10-11T00:00:57.961Z,790.96
2017-10-11T00:01:02.180Z,791.02
2017-10-11T00:01:06.147Z,791.01
2017-10-11T00:01:10.396Z,790.99
2017-10-11T00:01:14.758Z,791
2017-10-11T00:01:18.984Z,791.02
2017-10-11T00:01:23.083Z,791.01
2017-10-11T00:01:27.178Z,790.98
2017-10-11T00:01:31.279Z,790.97
2017-10-11T00:01:35.250Z,790.98
2017-10-11T00:01:39.497Z,790.96
2017-10-11T00:01:43.866Z,790.96
2017-10-11T00:01:47.963Z,790.96
2017-10-11T00:01:52.205Z,790.97
2017-10-11T00:01:56.173Z,790.95
2017-10-11T00:02:00.398Z,790.95
2017-10-11T00:02:04.549Z,790.9
2017-10-11T00:02:08.649Z,790.96
2017-10-11T00:02:12.755Z,790.96
2017-10-11T00:02:17.118Z,790.95
2017-10-11T00:02:21.358Z,790.94
2017-10-11T00:02:25.592Z,790.87
2017-10-11T00:02:29.696Z,790.91
2017-10-11T00:02:33.936Z,790.9
2017-10-11T00:02:37.898Z,790.91
2017-10-11T00:02:41.996Z,790.9
2017-10-11T00:02:46.098Z,790.89
2017-10-11T00:02:50.330Z,790.91
2017-10-11T00:02:54.295Z,790.92
2017-10-11T00:02:58.262Z,790.9
2017-10-11T00:03:02.799Z,790.93
2017-10-11T00:03:06.901Z,790.85
2017-10-11T00:03:10.999Z,790.89
2017-10-11T00:03:14.832Z,790.88
2017-10-11T00:03:19.202Z,790.82
2017-10-11T00:03:23.441Z,790.85
2017-10-11T00:03:27.546Z,790.89
2017-10-11T00:03:31.775Z,790.88
2017-10-11T00:03:35.879Z,790.89
2017-10-11T00:03:39.975Z,790.8
2017-10-11T00:03:44.081Z,790.88
2017-10-11T00:03:48.049Z,790.84
2017-10-11T00:03:52.283Z,790.84
2017-10-11T00:03:56.388Z,790.85
2017-10-11T00:04:00.756Z,790.83
2017-10-11T00:04:04.989Z,790.83
2017-10-11T00:04:09.228Z,790.8
2017-10-11T00:04:13.458Z,790.81
2017-10-11T00:04:17.423Z,790.83
2017-10-11T00:04:21.797Z,790.82
2017-10-11T00:04:26.045Z,790.81
2017-10-11T00:04:30.152Z,790.82
2017-10-11T00:04:34.400Z,790.78
2017-10-11T00:04:38.371Z,790.79
2017-10-11T00:04:42.468Z,790.78
2017-10-11T00:04:46.705Z,790.76
2017-10-11T00:04:50.938Z,790.78
2017-10-11T00:04:54.911Z,790.78
2017-10-11T00:04:59.009Z,790.76
2017-10-11T00:05:03.250Z,790.75
2017-10-11T00:05:07.751Z,790.73
2017-10-11T00:05:11.976Z,790.79
2017-10-11T00:05:16.612Z,790.78
2017-10-11T00:05:20.712Z,790.79
2017-10-11T00:05:24.685Z,790.75
2017-10-11T00:05:28.917Z,790.77
2017-10-11T00:05:33.440Z,790.75
2017-10-11T00:05:37.536Z,790.69
2017-10-11T00:05:41.769Z,790.75
2017-10-11T00:05:45.868Z,790.76
2017-10-11T00:05:50.227Z,790.74
2017-10-11T00:05:54.336Z,790.72
2017-10-11T00:05:58.819Z,790.71
2017-10-11T00:06:03.162Z,790.68
2017-10-11T00:06:07.655Z,790.68
2017-10-11T00:06:11.892Z,790.72
2017-10-11T00:06:16.386Z,790.69
2017-10-11T00:06:20.355Z,790.71
2017-10-11T00:06:24.734Z,790.72
2017-10-11T00:06:28.836Z,790.66
2017-10-11T00:06:32.938Z,790.63
2017-10-11T00:06:37.169Z,790.69
2017-10-11T00:06:41.278Z,790.63
2017-10-11T00:06:45.634Z,790.64
2017-10-11T00:06:49.733Z,790.62
2017-10-11T00:06:54.112Z,790.63
2017-10-11T00:06:58.207Z,790.63
2017-10-11T00:07:02.443Z,790.66
2017-10-11T00:07:06.827Z,790.66
2017-10-11T00:07:11.062Z,790.6
2017-10-11T00:07:15.294Z,790.66
2017-10-11T00:07:19.398Z,790.65
2017-10-11T00:07:23.505Z,790.63
2017-10-11T00:07:27.864Z,790.61
2017-10-11T00:07:32.098Z,790.6
2017-10-11T00:07:36.354Z,790.64
2017-10-11T00:07:40.601Z,790.62
2017-10-11T00:07:44.703Z,790.62
2017-10-11T00:07:48.933Z,790.61
2017-10-11T00:07:53.297Z,790.61
2017-10-11T00:07:57.667Z,790.57
2017-10-11T00:08:02.018Z,790.63
2017-10-11T00:08:06.262Z,790.62
2017-10-11T00:08:10.228Z,790.61
2017-10-11T00:08:14.329Z,790.58
2017-10-11T00:08:18.561Z,790.57
2017-10-11T00:08:22.669Z,790.58
2017-10-11T00:08:26.769Z,790.55
2017-10-11T00:08:30.872Z,790.57
2017-10-11T00:08:35.362Z,790.57
2017-10-11T00:08:39.739Z,790.6
2017-10-11T00:08:43.972Z,790.57
2017-10-11T00:08:48.345Z,790.55
2017-10-11T00:08:52.851Z,790.55
2017-10-11T00:08:57.224Z,790.56
2017-10-11T00:09:01.723Z,790.55
2017-10-11T00:09:06.219Z,790.53
2017-10-11T00:09:10.452Z,790.53
2017-10-11T00:09:14.553Z,790.55
2017-10-11T00:09:18.926Z,790.57
2017-10-11T00:09:23.289Z,790.53
2017-10-11T00:09:27.387Z,790.52
2017-10-11T00:09:31.627Z,790.49
2017-10-11T00:09:35.729Z,790.53
2017-10-11T00:09:39.823Z,790.48
2017-10-11T00:09:43.924Z,790.51
2017-10-11T00:09:47.759Z,790.51
2017-10-11T00:09:52.257Z,790.51
2017-10-11T00:09:56.483Z,790.51
2017-10-11T00:10:00.447Z,790.5
2017-10-11T00:10:05.029Z,790.5
2017-10-11T00:10:09.129Z,790.5
2017-10-11T00:10:13.099Z,790.48
2017-10-11T00:10:17.189Z,790.51
2017-10-11T00:10:21.288Z,790.51
2017-10-11T00:10:25.393Z,790.5
2017-10-11T00:10:29.489Z,790.49
2017-10-11T00:10:33.717Z,790.48
2017-10-11T00:10:37.818Z,790.5
2017-10-11T00:10:42.054Z,790.44
2017-10-11T00:10:46.548Z,790.43
2017-10-11T00:10:50.913Z,790.45
2017-10-11T00:10:55.145Z,790.44
2017-10-11T00:10:59.383Z,790.39
2017-10-11T00:11:03.837Z,790.46
2017-10-11T00:11:08.090Z,790.42
2017-10-11T00:11:12.450Z,790.43
2017-10-11T00:11:16.814Z,790.45
2017-10-11T00:11:20.926Z,790.42
2017-10-11T00:11:25.033Z,790.43
2017-10-11T00:11:29.132Z,790.43
2017-10-11T00:11:33.365Z,790.41
2017-10-11T00:11:37.465Z,790.41
2017-10-11T00:11:41.691Z,790.43
2017-10-11T00:11:45.917Z,790.44
2017-10-11T00:11:50.292Z,790.4
2017-10-11T00:11:54.522Z,790.43
2017-10-11T00:11:58.760Z,790.39
2017-10-11T00:12:02.994Z,790.39
2017-10-11T00:12:07.097Z,790.39
2017-10-11T00:12:11.599Z,790.39
2017-10-11T00:12:15.575Z,790.39
2017-10-11T00:12:19.937Z,790.4
2017-10-11T00:12:24.169Z,790.43
2017-10-11T00:12:28.268Z,790.4
2017-10-11T00:12:32.497Z,790.38
2017-10-11T00:12:36.732Z,790.38
2017-10-11T00:12:40.839Z,790.4
2017-10-11T00:12:44.941Z,790.36
2017-10-11T00:12:49.039Z,790.37
2017-10-11T00:12:53.267Z,790.36
2017-10-11T00:12:57.628Z,790.38
2017-10-11T00:13:01.596Z,790.35
2017-10-11T00:13:06.259Z,790.32
2017-10-11T00:13:10.389Z,790.32
2017-10-11T00:13:14.358Z,790.35
2017-10-11T00:13:18.595Z,790.3
2017-10-11T00:13:22.829Z,790.32
2017-10-11T00:13:26.801Z,790.34
2017-10-11T00:13:31.044Z,790.33
2017-10-11T00:13:34.876Z,790.33
2017-10-11T00:13:39.245Z,790.28
2017-10-11T00:13:43.349Z,790.32
2017-10-11T00:13:47.446Z,790.31
2017-10-11T00:13:51.284Z,790.29
2017-10-11T00:13:55.386Z,790.27
2017-10-11T00:13:59.375Z,790.29
2017-10-11T00:14:03.522Z,790.31
2017-10-11T00:14:07.892Z,790.3
2017-10-11T00:14:11.991Z,790.28
2017-10-11T00:14:16.223Z,790.28
2017-10-11T00:14:20.586Z,790.28
2017-10-11T00:14:24.553Z,790.31
2017-10-11T00:14:28.784Z,790.3
2017-10-11T00:14:32.883Z,790.29
2017-10-11T00:14:36.999Z,790.22
2017-10-11T00:14:40.853Z,790.24
2017-10-11T00:14:44.967Z,790.21
2017-10-11T00:14:48.937Z,790.27
2017-10-11T00:14:52.908Z,790.24
2017-10-11T00:14:56.869Z,790.27
2017-10-11T00:15:00.962Z,790.27
2017-10-11T00:15:05.201Z,790.25
2017-10-11T00:15:09.301Z,790.26
2017-10-11T00:15:13.403Z,790.25
2017-10-11T00:15:17.638Z,790.23
2017-10-11T00:15:21.904Z,790.23
2017-10-11T00:15:26.006Z,790.19
2017-10-11T00:15:29.978Z,790.22
2017-10-11T00:15:34.213Z,790.19
2017-10-11T00:15:38.311Z,790.19
2017-10-11T00:15:42.549Z,790.21
2017-10-11T00:15:46.657Z,790.22
2017-10-11T00:15:50.885Z,790.23
2017-10-11T00:15:54.992Z,790.22
2017-10-11T00:15:59.224Z,790.22
2017-10-11T00:16:03.585Z,790.22
2017-10-11T00:16:07.684Z,790.22
2017-10-11T00:16:11.649Z,790.21
2017-10-11T00:16:16.016Z,790.18
2017-10-11T00:16:20.242Z,790.16
2017-10-11T00:16:24.475Z,790.15
2017-10-11T00:16:28.574Z,790.2
2017-10-11T00:16:32.544Z,790.18
2017-10-11T00:16:36.914Z,790.18
2017-10-11T00:16:41.151Z,790.18
2017-10-11T00:16:45.244Z,790.2
2017-10-11T00:16:49.208Z,790.17
2017-10-11T00:16:53.442Z,790.17
2017-10-11T00:16:57.548Z,790.2
2017-10-11T00:17:01.782Z,790.2
2017-10-11T00:17:05.888Z,790.19
2017-10-11T00:17:09.726Z,790.19
2017-10-11T00:17:13.826Z,790.17
2017-10-11T00:17:17.794Z,790.17
2017-10-11T00:17:21.791Z,790.17
2017-10-11T00:17:25.888Z,790.18
2017-10-11T00:17:30.122Z,790.17
2017-10-11T00:17:34.375Z,790.18
2017-10-11T00:17:38.599Z,790.15
2017-10-11T00:17:42.831Z,790.1
2017-10-11T00:17:46.943Z,790.16
2017-10-11T00:17:51.178Z,790.16
2017-10-11T00:17:55.410Z,790.14
2017-10-11T00:17:59.780Z,790.11
2017-10-11T00:18:04.175Z,790.13
2017-10-11T00:18:08.544Z,790.15
2017-10-11T00:18:12.778Z,790.16
2017-10-11T00:18:17.012Z,790.16
2017-10-11T00:18:21.108Z,790.13
2017-10-11T00:18:25.204Z,790.12
2017-10-11T00:18:29.176Z,790.14
2017-10-11T00:18:33.282Z,790.09
2017-10-11T00:18:37.513Z,790.14
2017-10-11T00:18:41.631Z,790.14
2017-10-11T00:18:45.864Z,790.16
2017-10-11T00:18:49.971Z,790.14
2017-10-11T00:18:54.069Z,790.14
2017-10-11T00:18:58.172Z,790.14
2017-10-11T00:19:02.406Z,790.13
2017-10-11T00:19:06.770Z,790.14
2017-10-11T00:19:10.884Z,790.1
2017-10-11T00:19:15.249Z,790.13
2017-10-11T00:19:19.215Z,790.08
2017-10-11T00:19:23.581Z,790.12
2017-10-11T00:19:27.939Z,790.12
2017-10-11T00:19:32.169Z,790.12
2017-10-11T00:19:36.137Z,790.11
2017-10-11T00:19:40.362Z,790.15
2017-10-11T00:19:44.463Z,790.12
2017-10-11T00:19:48.431Z,790.11
2017-10-11T00:19:52.658Z,790.11
2017-10-11T00:19:56.886Z,790.1
2017-10-11T00:20:00.988Z,790.1
2017-10-11T00:20:05.393Z,790.11
2017-10-11T00:20:09.490Z,790.1
2017-10-11T00:20:13.720Z,790.14
2017-10-11T00:20:18.225Z,790.11
2017-10-11T00:20:22.322Z,790.12
2017-10-11T00:20:26.415Z,790.14
2017-10-11T00:20:30.385Z,790.05
2017-10-11T00:20:34.623Z,790.14
2017-10-11T00:20:38.855Z,790.14
2017-10-11T00:20:42.965Z,790.11
2017-10-11T00:20:46.934Z,790.11
2017-10-11T00:20:51.160Z,790.13
2017-10-11T00:20:55.270Z,790.13
2017-10-11T00:20:59.505Z,790.07
2017-10-11T00:21:03.874Z,790.08
2017-10-11T00:21:08.243Z,790.09
2017-10-11T00:21:12.606Z,790.07
2017-10-11T00:21:16.570Z,790.03
2017-10-11T00:21:20.534Z,790.08
2017-10-11T00:21:24.503Z,790.07
2017-10-11T00:21:28.596Z,790.05
2017-10-11T00:21:32.568Z,790.08
2017-10-11T00:21:36.951Z,790.07
2017-10-11T00:21:41.321Z,790.08
2017-10-11T00:21:45.285Z,790.15
2017-10-11T00:21:49.525Z,790.04
2017-10-11T00:21:53.895Z,790.07
2017-10-11T00:21:57.994Z,790.15
2017-10-11T00:22:02.097Z,790.12
2017-10-11T00:22:06.334Z,790.1
2017-10-11T00:22:10.438Z,790.11
2017-10-11T00:22:14.820Z,790.1
2017-10-11T00:22:19.059Z,790.1
2017-10-11T00:22:23.165Z,790.09
2017-10-11T00:22:27.402Z,790.1
2017-10-11T00:22:31.507Z,790.09
2017-10-11T00:22:35.608Z,790.12
2017-10-11T00:22:39.710Z,790.11
2017-10-11T00:22:43.939Z,790.1
2017-10-11T00:22:48.052Z,790.08
2017-10-11T00:22:52.287Z,790.11
2017-10-11T00:22:56.799Z,790.1
2017-10-11T00:23:00.632Z,790.09
2017-10-11T00:23:04.993Z,790.08
2017-10-11T00:23:09.095Z,790.11
2017-10-11T00:23:12.929Z,790.1
2017-10-11T00:23:16.900Z,790.05
2017-10-11T00:23:21.264Z,790.05
2017-10-11T00:23:25.668Z,790.04
2017-10-11T00:23:29.892Z,790.09
2017-10-11T00:23:34.255Z,790.09
2017-10-11T00:23:38.753Z,790.1
2017-10-11T00:23:42.861Z,790.13
2017-10-11T00:23:47.095Z,790.12
2017-10-11T00:23:51.323Z,790.1
2017-10-11T00:23:55.551Z,790.12
2017-10-11T00:23:59.781Z,790.08
2017-10-11T00:24:03.748Z,790.1
2017-10-11T00:24:07.844Z,790.12
2017-10-11T00:24:11.679Z,790.1
2017-10-11T00:24:15.653Z,790.09
2017-10-11T00:24:19.916Z,790.12
2017-10-11T00:24:24.154Z,790.15
2017-10-11T00:24:28.128Z,790.09
2017-10-11T00:24:32.254Z,790.13
2017-10-11T00:24:36.485Z,790.07
2017-10-11T00:24:40.585Z,790.11
2017-10-11T00:24:44.551Z,790.1
2017-10-11T00:24:48.647Z,790.12
2017-10-11T00:24:53.007Z,790.06
2017-10-11T00:24:57.242Z,790.08
2017-10-11T00:25:01.618Z,790.09
2017-10-11T00:25:05.971Z,790.1
2017-10-11T00:25:10.076Z,790.09
2017-10-11T00:25:14.037Z,790.09
2017-10-11T00:25:18.134Z,790.09
2017-10-11T00:25:22.231Z,790.07
2017-10-11T00:25:26.333Z,790.07
2017-10-11T00:25:30.428Z,790.08
2017-10-11T00:25:35.059Z,790.1
2017-10-11T00:25:39.284Z,790.07
2017-10-11T00:25:43.513Z,790.07
2017-10-11T00:25:47.744Z,790.08
2017-10-11T00:25:51.716Z,790.07
2017-10-11T00:25:56.081Z,790.05
2017-10-11T00:26:00.183Z,790.06
2017-10-11T00:26:04.420Z,790.09
2017-10-11T00:26:08.385Z,790.08
2017-10-11T00:26:12.350Z,790.04
2017-10-11T00:26:16.593Z,790.11
2017-10-11T00:26:20.828Z,790.09
2017-10-11T00:26:24.935Z,790.07
2017-10-11T00:26:28.895Z,790.07
2017-10-11T00:26:33.385Z,790.07
2017-10-11T00:26:37.754Z,790.05
2017-10-11T00:26:41.994Z,790.05
2017-10-11T00:26:46.092Z,790.05
2017-10-11T00:26:50.061Z,790.06
2017-10-11T00:26:54.285Z,790.06
2017-10-11T00:26:58.524Z,790.07
2017-10-11T00:27:02.599Z,790.04
2017-10-11T00:27:06.690Z,790.05
2017-10-11T00:27:10.806Z,790.04
2017-10-11T00:27:14.898Z,790.03
2017-10-11T00:27:18.862Z,790.02
2017-10-11T00:27:22.968Z,790.02
2017-10-11T00:27:27.327Z,790.01
2017-10-11T00:27:31.553Z,789.98
2017-10-11T00:27:35.656Z,789.94
2017-10-11T00:27:39.887Z,790.01
2017-10-11T00:27:43.985Z,789.97
2017-10-11T00:27:48.082Z,790.02
2017-10-11T00:27:52.191Z,789.96
2017-10-11T00:27:56.406Z,789.96
2017-10-11T00:28:00.381Z,789.93
2017-10-11T00:28:04.477Z,789.97
2017-10-11T00:28:08.573Z,789.95
2017-10-11T00:28:12.936Z,789.96
2017-10-11T00:28:17.174Z,789.97
2017-10-11T00:28:21.534Z,789.97
2017-10-11T00:28:25.638Z,789.94
2017-10-11T00:28:29.606Z,789.98
2017-10-11T00:28:33.833Z,789.95
2017-10-11T00:28:37.801Z,789.95
2017-10-11T00:28:42.037Z,789.95
2017-10-11T00:28:46.182Z,789.96
2017-10-11T00:28:50.283Z,789.93
2017-10-11T00:28:54.381Z,789.9
2017-10-11T00:28:58.617Z,789.96
2017-10-11T00:29:02.918Z,789.94
2017-10-11T00:29:06.751Z,789.89
2017-10-11T00:29:10.990Z,789.94
2017-10-11T00:29:15.225Z,789.93
2017-10-11T00:29:19.193Z,789.94
2017-10-11T00:29:23.162Z,789.91
2017-10-11T00:29:27.420Z,789.91
2017-10-11T00:29:31.256Z,789.92
2017-10-11T00:29:35.628Z,789.92
2017-10-11T00:29:39.587Z,789.92
2017-10-11T00:29:43.812Z,789.92
2017-10-11T00:29:48.056Z,789.94
2017-10-11T00:29:52.164Z,789.92
2017-10-11T00:29:56.270Z,789.91
2017-10-11T00:30:00.239Z,789.9
2017-10-11T00:30:04.505Z,789.94
2017-10-11T00:30:08.737Z,789.93
2017-10-11T00:30:12.835Z,789.92
2017-10-11T00:30:17.204Z,789.92
2017-10-11T00:30:21.563Z,789.92
2017-10-11T00:30:25.542Z,789.94
2017-10-11T00:30:29.643Z,789.91
2017-10-11T00:30:34.002Z,789.94
2017-10-11T00:30:38.229Z,789.9
2017-10-11T00:30:42.462Z,789.94
2017-10-11T00:30:46.826Z,789.91
2017-10-11T00:30:51.058Z,789.94
2017-10-11T00:30:55.037Z,789.97
2017-10-11T00:30:59.268Z,789.95
2017-10-11T00:31:03.546Z,789.9
2017-10-11T00:31:07.526Z,789.92
2017-10-11T00:31:11.530Z,789.96
2017-10-11T00:31:15.632Z,789.97
2017-10-11T00:31:19.604Z,789.97
2017-10-11T00:31:23.701Z,789.94
2017-10-11T00:31:27.932Z,789.98
2017-10-11T00:31:32.030Z,789.95
2017-10-11T00:31:36.274Z,789.94
2017-10-11T00:31:40.632Z,789.96
2017-10-11T00:31:44.599Z,789.96
2017-10-11T00:31:48.698Z,789.93
2017-10-11T00:31:53.209Z,789.94
2017-10-11T00:31:57.309Z,789.98
2017-10-11T00:32:01.410Z,789.96
2017-10-11T00:32:05.940Z,789.98
2017-10-11T00:32:09.893Z,790
2017-10-11T00:32:13.860Z,789.96
2017-10-11T00:32:18.095Z,789.99
2017-10-11T00:32:22.328Z,789.97
2017-10-11T00:32:26.420Z,789.92
2017-10-11T00:32:30.393Z,789.96
2017-10-11T00:32:34.630Z,789.99
2017-10-11T00:32:38.725Z,789.97
2017-10-11T00:32:43.094Z,789.97
2017-10-11T00:32:47.328Z,789.93
2017-10-11T00:32:51.290Z,789.97
2017-10-11T00:32:55.522Z,789.97
2017-10-11T00:32:59.890Z,789.98
2017-10-11T00:33:04.273Z,790
2017-10-11T00:33:08.111Z,789.99
2017-10-11T00:33:12.349Z,789.97
2017-10-11T00:33:16.579Z,789.99
2017-10-11T00:33:20.819Z,790.01
2017-10-11T00:33:24.788Z,790.01
2017-10-11T00:33:29.142Z,790.02
2017-10-11T00:33:33.633Z,790.03
2017-10-11T00:33:37.602Z,789.99
2017-10-11T00:33:41.824Z,790
2017-10-11T00:33:46.181Z,790
2017-10-11T00:33:50.276Z,790.01
2017-10-11T00:33:54.503Z,790.01
2017-10-11T00:33:58.741Z,790.01
2017-10-11T00:34:03.074Z,789.98
2017-10-11T00:34:07.180Z,790.01
2017-10-11T00:34:11.417Z,789.99
2017-10-11T00:34:15.651Z,790.01
2017-10-11T00:34:19.635Z,790.01
2017-10-11T00:34:23.605Z,790.04
2017-10-11T00:34:27.567Z,790
2017-10-11T00:34:31.674Z,790.03
2017-10-11T00:34:35.649Z,790.01
2017-10-11T00:34:39.997Z,790.02
2017-10-11T00:34:44.225Z,790
2017-10-11T00:34:48.325Z,790.02
2017-10-11T00:34:52.815Z,789.99
2017-10-11T00:34:56.781Z,790.03
2017-10-11T00:35:00.882Z,790.02
2017-10-11T00:35:04.984Z,790.02
2017-10-11T00:35:08.822Z,789.99
2017-10-11T00:35:12.793Z,790
2017-10-11T00:35:17.160Z,790.02
2017-10-11T00:35:21.659Z,789.96
2017-10-11T00:35:25.897Z,790
2017-10-11T00:35:29.865Z,790.05
2017-10-11T00:35:33.962Z,790
2017-10-11T00:35:38.325Z,790.03
2017-10-11T00:35:42.554Z,789.99
2017-10-11T00:35:46.791Z,790.03
2017-10-11T00:35:51.026Z,790.01
2017-10-11T00:35:55.543Z,790.03
2017-10-11T00:35:59.654Z,790.05
2017-10-11T00:36:04.014Z,790.05
2017-10-11T00:36:08.122Z,790.03
2017-10-11T00:36:12.357Z,790.07
2017-10-11T00:36:16.726Z,790.1
2017-10-11T00:36:21.101Z,790.08
2017-10-11T00:36:25.191Z,790.06
2017-10-11T00:36:29.027Z,790.08
2017-10-11T00:36:32.866Z,790.06
2017-10-11T00:36:36.965Z,790.03
2017-10-11T00:36:41.326Z,790.09
2017-10-11T00:36:45.292Z,790.07
2017-10-11T00:36:49.526Z,790.08
2017-10-11T00:36:53.492Z,790.06
2017-10-11T00:36:57.588Z,790.08
2017-10-11T00:37:02.086Z,790.08
2017-10-11T00:37:06.053Z,790.08
2017-10-11T00:37:09.894Z,790.09
2017-10-11T00:37:14.252Z,790.06
2017-10-11T00:37:18.357Z,790.11
2017-10-11T00:37:22.456Z,790.11
2017-10-11T00:37:26.822Z,790.11
2017-10-11T00:37:30.797Z,790.12
2017-10-11T00:37:35.173Z,790.11
2017-10-11T00:37:39.403Z,790.13
2017-10-11T00:37:43.637Z,790.13
2017-10-11T00:37:47.736Z,790.14
2017-10-11T00:37:52.095Z,790.11
2017-10-11T00:37:56.470Z,790.13
2017-10-11T00:38:00.572Z,790.14
2017-10-11T00:38:04.694Z,790.1
2017-10-11T00:38:08.797Z,790.09
2017-10-11T00:38:12.905Z,790.12
2017-10-11T00:38:17.018Z,790.17
2017-10-11T00:38:21.112Z,790.15
2017-10-11T00:38:24.949Z,790.15
2017-10-11T00:38:29.054Z,790.17
2017-10-11T00:38:33.152Z,790.14
2017-10-11T00:38:37.387Z,790.15
2017-10-11T00:38:41.613Z,790.17
2017-10-11T00:38:45.842Z,790.17
2017-10-11T00:38:49.940Z,790.14
2017-10-11T00:38:54.173Z,790.17
2017-10-11T00:38:58.283Z,790.2
2017-10-11T00:39:02.571Z,790.15
2017-10-11T00:39:07.066Z,790.17
2017-10-11T00:39:11.296Z,790.16
2017-10-11T00:39:15.658Z,790.14
2017-10-11T00:39:19.762Z,790.17
2017-10-11T00:39:23.989Z,790.16
2017-10-11T00:39:28.085Z,790.18
2017-10-11T00:39:32.185Z,790.2
2017-10-11T00:39:36.698Z,790.18
2017-10-11T00:39:40.932Z,790.17
2017-10-11T00:39:45.039Z,790.2
2017-10-11T00:39:49.141Z,790.18
2017-10-11T00:39:53.369Z,790.2
2017-10-11T00:39:57.601Z,790.2
2017-10-11T00:40:02.188Z,790.2
2017-10-11T00:40:06.674Z,790.23
2017-10-11T00:40:10.772Z,790.19
2017-10-11T00:40:14.742Z,790.21
2017-10-11T00:40:18.839Z,790.22
2017-10-11T00:40:23.213Z,790.24
2017-10-11T00:40:27.445Z,790.24
2017-10-11T00:40:31.410Z,790.23
2017-10-11T00:40:35.648Z,790.21
2017-10-11T00:40:39.906Z,790.19
2017-10-11T00:40:44.002Z,790.24
2017-10-11T00:40:48.237Z,790.25
2017-10-11T00:40:52.637Z,790.2
2017-10-11T00:40:56.870Z,790.22
2017-10-11T00:41:00.974Z,790.27
2017-10-11T00:41:04.995Z,790.26
2017-10-11T00:41:08.964Z,790.27
2017-10-11T00:41:12.928Z,790.29
2017-10-11T00:41:16.898Z,790.27
2017-10-11T00:41:20.883Z,790.29
2017-10-11T00:41:24.987Z,790.2
2017-10-11T00:41:29.349Z,790.25
2017-10-11T00:41:33.188Z,790.29
2017-10-11T00:41:37.681Z,790.3
2017-10-11T00:41:42.039Z,790.25
2017-10-11T00:41:45.876Z,790.32
2017-10-11T00:41:49.969Z,790.29
2017-10-11T00:41:54.068Z,790.27
2017-10-11T00:41:58.303Z,790.29
2017-10-11T00:42:02.732Z,790.26
2017-10-11T00:42:06.705Z,790.3
2017-10-11T00:42:10.944Z,790.31
2017-10-11T00:42:15.046Z,790.32
2017-10-11T00:42:19.011Z,790.29
2017-10-11T00:42:23.114Z,790.31
2017-10-11T00:42:27.227Z,790.31
2017-10-11T00:42:31.202Z,790.32
2017-10-11T00:42:35.435Z,790.33
2017-10-11T00:42:39.544Z,790.28
2017-10-11T00:42:44.028Z,790.34
2017-10-11T00:42:48.534Z,790.31
2017-10-11T00:42:52.634Z,790.31
2017-10-11T00:42:56.733Z,790.34
2017-10-11T00:43:00.835Z,790.35
2017-10-11T00:43:05.458Z,790.35
2017-10-11T00:43:09.566Z,790.33
2017-10-11T00:43:13.667Z,790.36
2017-10-11T00:43:17.771Z,790.34
2017-10-11T00:43:21.739Z,790.34
2017-10-11T00:43:25.969Z,790.36
2017-10-11T00:43:30.201Z,790.34
2017-10-11T00:43:34.292Z,790.38
2017-10-11T00:43:38.519Z,790.38
2017-10-11T00:43:42.763Z,790.35
2017-10-11T00:43:47.259Z,790.34
2017-10-11T00:43:51.749Z,790.38
2017-10-11T00:43:55.850Z,790.39
2017-10-11T00:44:00.211Z,790.35
2017-10-11T00:44:04.309Z,790.39
2017-10-11T00:44:08.414Z,790.34
2017-10-11T00:44:12.515Z,790.34
2017-10-11T00:44:16.878Z,790.4
2017-10-11T00:44:20.984Z,790.39
2017-10-11T00:44:25.220Z,790.39
2017-10-11T00:44:29.320Z,790.41
2017-10-11T00:44:33.288Z,790.39
2017-10-11T00:44:37.402Z,790.36
2017-10-11T00:44:41.765Z,790.36
2017-10-11T00:44:46.132Z,790.33
2017-10-11T00:44:50.505Z,790.42
2017-10-11T00:44:55.003Z,790.43
2017-10-11T00:44:59.229Z,790.4
2017-10-11T00:45:03.465Z,790.45
2017-10-11T00:45:07.567Z,790.42
2017-10-11T00:45:11.670Z,790.43
2017-10-11T00:45:16.054Z,790.41
2017-10-11T00:45:20.193Z,790.4
2017-10-11T00:45:24.417Z,790.39
2017-10-11T00:45:28.652Z,790.39
2017-10-11T00:45:32.750Z,790.41
2017-10-11T00:45:36.978Z,790.4
2017-10-11T00:45:40.814Z,790.39
2017-10-11T00:45:44.927Z,790.43
2017-10-11T00:45:49.158Z,790.42
2017-10-11T00:45:53.389Z,790.43
2017-10-11T00:45:57.616Z,790.43
2017-10-11T00:46:01.724Z,790.41
2017-10-11T00:46:05.845Z,790.43
2017-10-11T00:46:09.815Z,790.4
2017-10-11T00:46:13.784Z,790.45
2017-10-11T00:46:17.753Z,790.46
2017-10-11T00:46:21.856Z,790.43
2017-10-11T00:46:25.694Z,790.45
2017-10-11T00:46:29.542Z,790.45
2017-10-11T00:46:33.771Z,790.44
2017-10-11T00:46:38.272Z,790.45
2017-10-11T00:46:42.380Z,790.47
2017-10-11T00:46:46.478Z,790.47
2017-10-11T00:46:50.445Z,790.46
2017-10-11T00:46:54.547Z,790.46
2017-10-11T00:46:58.644Z,790.45
2017-10-11T00:47:02.981Z,790.44
2017-10-11T00:47:07.214Z,790.44
2017-10-11T00:47:11.450Z,790.47
2017-10-11T00:47:15.826Z,790.46
2017-10-11T00:47:19.797Z,790.42
2017-10-11T00:47:23.766Z,790.45
2017-10-11T00:47:27.868Z,790.46
2017-10-11T00:47:31.966Z,790.43
2017-10-11T00:47:36.196Z,790.41
2017-10-11T00:47:40.556Z,790.46
2017-10-11T00:47:44.787Z,790.45
2017-10-11T00:47:48.907Z,790.44
2017-10-11T00:47:53.135Z,790.43
2017-10-11T00:47:57.499Z,790.46
2017-10-11T00:48:01.885Z,790.45
2017-10-11T00:48:05.988Z,790.43
2017-10-11T00:48:10.350Z,790.46
2017-10-11T00:48:14.448Z,790.41
2017-10-11T00:48:18.671Z,790.42
2017-10-11T00:48:22.501Z,790.45
2017-10-11T00:48:26.603Z,790.45
2017-10-11T00:48:30.970Z,790.42
2017-10-11T00:48:35.079Z,790.39
2017-10-11T00:48:39.312Z,790.41
2017-10-11T00:48:43.410Z,790.41
2017-10-11T00:48:47.664Z,790.44
2017-10-11T00:48:51.633Z,790.46
2017-10-11T00:48:55.993Z,790.44
2017-10-11T00:49:00.482Z,790.42
2017-10-11T00:49:04.723Z,790.45
2017-10-11T00:49:08.690Z,790.43
2017-10-11T00:49:12.917Z,790.46
2017-10-11T00:49:16.884Z,790.43
2017-10-11T00:49:20.994Z,790.45
2017-10-11T00:49:25.085Z,790.44
2017-10-11T00:49:29.047Z,790.43
2017-10-11T00:49:33.283Z,790.46
2017-10-11T00:49:37.780Z,790.44
2017-10-11T00:49:42.009Z,790.47
2017-10-11T00:49:46.110Z,790.46
2017-10-11T00:49:50.208Z,790.46
2017-10-11T00:49:54.436Z,790.48
2017-10-11T00:49:58.538Z,790.45
2017-10-11T00:50:03.205Z,790.47
2017-10-11T00:50:07.041Z,790.48
2017-10-11T00:50:11.397Z,790.47
2017-10-11T00:50:15.764Z,790.46
2017-10-11T00:50:20.000Z,790.49
2017-10-11T00:50:24.128Z,790.47
2017-10-11T00:50:28.394Z,790.5
2017-10-11T00:50:32.359Z,790.5
2017-10-11T00:50:36.463Z,790.52
2017-10-11T00:50:40.863Z,790.45
2017-10-11T00:50:44.959Z,790.45
2017-10-11T00:50:48.798Z,790.48
2017-10-11T00:50:53.294Z,790.48
2017-10-11T00:50:57.388Z,790.46
2017-10-11T00:51:01.852Z,790.47
2017-10-11T00:51:05.960Z,790.44
2017-10-11T00:51:09.799Z,790.49
2017-10-11T00:51:13.902Z,790.48
2017-10-11T00:51:17.874Z,790.49
2017-10-11T00:51:21.970Z,790.48
2017-10-11T00:51:26.193Z,790.48
2017-10-11T00:51:30.032Z,790.49
2017-10-11T00:51:34.398Z,790.5
2017-10-11T00:51:38.494Z,790.5
2017-10-11T00:51:42.466Z,790.52
2017-10-11T00:51:46.959Z,790.51
2017-10-11T00:51:51.060Z,790.45
2017-10-11T00:51:54.899Z,790.53
2017-10-11T00:51:58.873Z,790.52
2017-10-11T00:52:02.890Z,790.53
2017-10-11T00:52:06.727Z,790.49
2017-10-11T00:52:10.957Z,790.52
2017-10-11T00:52:15.059Z,790.52
2017-10-11T00:52:19.299Z,790.51